Time;durP1;ratioP1;P1;durP2;ratioP2;P2;SDS_P1;SDS_P2;PMS_P1;PMS_P2;Temp;Humidity;BMP_temperature;BMP_pressure;BME280_temperature;BME280_humidity;BME280_pressure;Samples;Min_cycle;Max_cycle;Signal;HPM_P1;HPM_P2
2022/11/28 00:04:10;;;;;;;24.10;13.85;;;;;;;2.42;94.00;98460.28;10257972;28;20500;-57
2022/11/28 00:09:09;;;;;;;27.38;15.45;;;;;;;2.43;93.62;98459.44;10257845;28;20074;-57
2022/11/28 00:14:09;;;;;;;;;;;;;;;2.45;93.71;98457.84;10257739;28;20086;-57
2022/11/28 00:19:09;;;;;;;21.55;13.55;;;;;;;2.43;94.29;98459.44;10257187;28;19963;-57
2022/11/28 00:24:08;;;;;;;22.83;14.23;;;;;;;2.40;93.81;98458.47;10257716;28;20080;-57
2022/11/28 00:29:08;;;;;;;;;;;;;;;2.40;94.20;98472.13;10257566;28;20073;-57
2022/11/28 00:34:08;;;;;;;23.93;13.93;;;;;;;2.36;94.08;98467.69;10257339;28;20355;-57
2022/11/28 00:39:07;;;;;;;26.48;14.40;;;;;;;2.35;93.88;98458.28;10256908;28;20309;-58
2022/11/28 00:44:06;;;;;;;23.55;14.07;;;;;;;2.32;94.15;98458.97;10256446;28;20030;-57
2022/11/28 00:49:07;;;;;;;23.67;13.45;;;;;;;2.27;93.43;98452.78;10256357;28;20069;-58
2022/11/28 00:54:06;;;;;;;24.55;13.10;;;;;;;2.34;94.01;98464.19;10255468;28;20074;-57
2022/11/28 00:59:05;;;;;;;25.77;13.80;;;;;;;2.33;94.09;98462.44;10256659;28;20689;-58
2022/11/28 01:04:06;;;;;;;21.30;13.43;;;;;;;2.35;93.71;98463.38;10255902;28;20085;-58
2022/11/28 01:09:10;;;;;;;21.45;12.73;;;;;;;2.33;93.73;98452.19;10255891;28;20085;-57
2022/11/28 01:14:10;;;;;;;24.95;14.38;;;;;;;2.29;94.21;98451.19;10255344;28;20074;-57
2022/11/28 01:19:10;;;;;;;27.42;14.88;;;;;;;2.33;93.76;98445.38;10255082;28;20516;-57
2022/11/28 01:24:09;;;;;;;;;;;;;;;2.35;93.72;98454.00;10255821;28;20074;-58
2022/11/28 01:29:09;;;;;;;23.67;12.87;;;;;;;2.34;93.92;98448.81;10254803;28;19956;-58
2022/11/28 01:34:08;;;;;;;31.08;17.33;;;;;;;2.30;93.81;98452.06;10254990;28;20084;-57
2022/11/28 01:39:08;;;;;;;23.60;13.82;;;;;;;2.22;93.73;98443.19;10254661;28;20468;-57
2022/11/28 01:44:27;;;;;;;22.70;13.75;;;;;;;2.22;93.76;98443.19;10254746;28;20074;-57
2022/11/28 01:49:30;;;;;;;26.25;15.00;;;;;;;2.21;94.21;98454.22;10254040;28;20585;-57
2022/11/28 01:54:30;;;;;;;24.25;15.27;;;;;;;2.20;94.41;98439.69;10253925;28;20491;-57
2022/11/28 01:59:36;;;;;;;24.85;12.65;;;;;;;2.12;93.96;98436.78;10253724;28;20070;-57
2022/11/28 02:04:35;;;;;;;19.90;11.70;;;;;;;2.14;94.19;98435.19;10253418;28;20093;-57
2022/11/28 02:09:34;;;;;;;18.83;12.10;;;;;;;2.14;93.85;98436.03;10253352;28;20069;-57
2022/11/28 02:15:02;;;;;;;19.30;11.70;;;;;;;2.06;93.93;98432.25;10252266;28;20049;-57
2022/11/28 02:20:38;;;;;;;18.77;11.05;;;;;;;2.13;94.02;98424.03;10252613;28;20072;-57
2022/11/28 02:26:10;;;;;;;21.27;11.93;;;;;;;2.14;94.10;98419.81;10252644;28;20070;-57
2022/11/28 02:31:12;;;;;;;18.58;10.52;;;;;;;2.14;94.30;98415.56;10252438;28;20077;-57
2022/11/28 02:36:17;;;;;;;16.90;10.43;;;;;;;2.14;94.53;98418.13;10252134;28;20073;-57
2022/11/28 02:41:38;;;;;;;17.48;10.73;;;;;;;2.13;94.56;98411.22;10252153;28;20069;-57
2022/11/28 02:46:55;;;;;;;18.90;11.45;;;;;;;2.09;93.89;98419.63;10252139;28;20542;-57
2022/11/28 02:52:13;;;;;;;20.38;12.27;;;;;;;2.05;93.99;98412.59;10251508;28;20077;-57
2022/11/28 02:57:12;;;;;;;23.00;12.85;;;;;;;2.08;93.98;98420.41;10251056;28;20072;-57
2022/11/28 03:02:13;;;;;;;20.08;11.73;;;;;;;2.07;93.95;98418.66;10250972;28;20065;-57
2022/11/28 03:07:31;;;;;;;20.02;12.05;;;;;;;2.06;93.93;98418.59;10251301;28;20073;-57
2022/11/28 03:12:56;;;;;;;20.83;12.40;;;;;;;2.06;93.82;98403.25;10250947;28;20070;-57
2022/11/28 03:18:09;;;;;;;23.27;12.88;;;;;;;2.07;93.87;98412.69;10250692;28;20645;-57
2022/11/28 03:23:18;;;;;;;23.67;12.82;;;;;;;2.05;93.74;98417.72;10250884;28;20077;-57
2022/11/28 03:28:24;;;;;;;21.10;12.82;;;;;;;2.11;94.20;98414.53;10250368;28;20072;-57
2022/11/28 03:33:26;;;;;;;20.83;12.35;;;;;;;2.09;93.89;98405.91;10250131;28;20077;-57
2022/11/28 03:38:33;;;;;;;22.50;13.10;;;;;;;2.03;93.79;98414.22;10250408;28;20078;-57
2022/11/28 03:43:39;;;;;;;21.98;12.43;;;;;;;2.03;93.76;98408.22;10249861;28;20069;-57
2022/11/28 03:48:42;;;;;;;22.30;12.60;;;;;;;2.04;93.86;98422.78;10250294;28;20078;-57
2022/11/28 03:53:53;;;;;;;22.30;12.20;;;;;;;2.04;93.74;98417.66;10249515;28;20067;-57
2022/11/28 03:58:55;;;;;;;21.63;12.30;;;;;;;2.04;93.62;98417.66;10249880;28;20085;-57
2022/11/28 04:04:48;;;;;;;21.20;12.88;;;;;;;2.04;93.62;98421.09;10249960;28;20120;-57
2022/11/28 04:10:10;;;;;;;19.02;11.88;;;;;;;2.01;93.60;98420.09;10225138;28;20531;-57
2022/11/28 04:15:16;;;;;;;18.23;12.15;;;;;;;2.00;93.62;98421.78;10246997;28;20073;-57
2022/11/28 04:20:25;;;;;;;20.65;12.48;;;;;;;1.95;93.44;98423.28;10249128;28;20066;-57
2022/11/28 04:25:27;;;;;;;18.98;12.20;;;;;;;1.93;93.35;98420.63;10249353;28;20061;-57
2022/11/28 04:30:26;;;;;;;22.23;11.98;;;;;;;1.90;93.67;98417.03;10249258;28;20488;-57
2022/11/28 04:35:45;;;;;;;;;;;;;;;1.87;93.91;98419.47;10249812;28;20062;-57
2022/11/28 04:41:13;;;;;;;23.08;13.23;;;;;;;1.85;93.63;98413.41;10254663;28;19953;-57
2022/11/28 04:46:20;;;;;;;21.65;13.00;;;;;;;1.83;93.30;98415.91;10256542;28;20068;-57
2022/11/28 04:51:29;;;;;;;21.67;12.88;;;;;;;1.85;93.77;98421.09;10256127;28;20539;-57
2022/11/28 04:56:37;;;;;;;16.03;10.30;;;;;;;1.81;93.38;98427.78;10255926;28;20455;-57
2022/11/28 05:01:38;;;;;;;24.00;13.57;;;;;;;1.74;93.86;98424.06;10255686;28;20117;-57
2022/11/28 05:06:37;;;;;;;23.58;13.80;;;;;;;1.71;93.57;98429.03;10255854;28;20065;-57
2022/11/28 05:11:36;;;;;;;25.75;14.52;;;;;;;1.73;93.53;98424.84;10255563;28;20073;-57
2022/11/28 05:16:35;;;;;;;30.00;15.68;;;;;;;1.76;93.90;98436.91;10254846;28;20034;-57
2022/11/28 05:21:34;;;;;;;31.55;18.73;;;;;;;1.81;93.90;98434.56;10255575;28;20391;-57
2022/11/28 05:26:34;;;;;;;27.92;16.45;;;;;;;1.81;93.91;98426.88;10251709;28;20082;-57
2022/11/28 05:31:33;;;;;;;26.90;16.10;;;;;;;1.79;93.83;98429.41;10226321;28;20085;-57
2022/11/28 05:36:32;;;;;;;24.40;16.85;;;;;;;1.75;94.12;98409.59;10253068;28;20039;-56
2022/11/28 05:41:31;;;;;;;29.83;19.23;;;;;;;1.80;94.04;98420.03;10253380;28;20077;-56
2022/11/28 05:46:30;;;;;;;;;;;;;;;1.80;94.01;98435.38;10248898;28;20057;-56
2022/11/28 05:51:29;;;;;;;30.20;18.98;;;;;;;1.84;94.18;98424.47;10251894;28;19910;-56
2022/11/28 05:56:28;;;;;;;25.98;16.23;;;;;;;1.89;94.32;98423.00;10251887;28;20023;-56
2022/11/28 06:01:28;;;;;;;27.77;16.63;;;;;;;1.92;94.14;98423.97;10251563;28;20050;-56
2022/11/28 06:06:30;;;;;;;31.67;18.95;;;;;;;1.96;94.31;98419.88;10251163;28;20065;-56
2022/11/28 06:11:32;;;;;;;37.22;16.48;;;;;;;2.00;94.05;98410.63;10249805;28;20081;-56
2022/11/28 06:16:31;;;;;;;36.22;20.13;;;;;;;1.97;94.13;98419.06;10251328;28;20114;-56
2022/11/28 06:21:31;;;;;;;29.73;16.65;;;;;;;1.95;93.84;98423.28;10251390;28;20074;-56
2022/11/28 06:26:30;;;;;;;34.33;18.90;;;;;;;1.98;94.14;98419.97;10250716;28;20066;-57
2022/11/28 06:31:29;;;;;;;37.90;17.67;;;;;;;1.98;93.87;98423.41;10251133;28;20092;-57
2022/11/28 06:36:29;;;;;;;27.77;17.17;;;;;;;1.80;93.26;98409.78;10223732;28;20130;-57
2022/11/28 06:41:28;;;;;;;;;;;;;;;1.67;93.39;98416.03;10238441;28;20527;-57
2022/11/28 06:46:27;;;;;;;47.55;28.52;;;;;;;1.66;93.70;98410.03;10250436;28;20422;-57
2022/11/28 06:51:26;;;;;;;42.88;25.70;;;;;;;1.71;93.56;98416.22;10251402;28;20415;-57
2022/11/28 06:56:25;;;;;;;29.48;17.70;;;;;;;1.74;94.03;98413.84;10249521;28;20034;-58
2022/11/28 07:01:26;;;;;;;38.28;22.70;;;;;;;1.81;94.03;98415.00;10247585;28;20116;-56
2022/11/28 07:06:27;;;;;;;106.25;57.13;;;;;;;1.87;94.60;98419.47;10232537;28;20528;-57
2022/11/28 07:11:29;;;;;;;132.05;69.45;;;;;;;2.00;94.58;98421.78;10248993;28;20080;-56
2022/11/28 07:16:30;;;;;;;65.10;35.42;;;;;;;2.11;94.76;98415.44;10250887;28;20551;-57
2022/11/28 07:21:30;;;;;;;36.13;20.02;;;;;;;2.21;94.43;98420.94;10250299;28;20507;-57
2022/11/28 07:26:29;;;;;;;34.22;20.58;;;;;;;2.20;94.01;98416.63;10249997;28;20064;-57
2022/11/28 07:31:30;;;;;;;28.00;17.48;;;;;;;2.12;93.09;98421.44;10249927;28;20073;-57
2022/11/28 07:36:30;;;;;;;27.35;17.27;;;;;;;2.04;93.44;98418.53;10251071;28;20070;-57
2022/11/28 07:41:29;;;;;;;23.63;13.88;;;;;;;2.10;93.82;98421.34;10250573;28;20081;-57
2022/11/28 07:46:29;;;;;;;20.58;12.48;;;;;;;2.24;94.26;98415.97;10249874;28;20065;-57
2022/11/28 07:51:31;;;;;;;26.25;14.60;;;;;;;2.28;93.48;98411.03;10250265;28;20080;-57
2022/11/28 07:56:33;;;;;;;28.10;19.83;;;;;;;2.16;93.83;98413.06;10249690;28;20070;-57
2022/11/28 08:01:34;;;;;;;28.42;17.35;;;;;;;2.09;94.10;98411.03;10250220;28;20531;-57
2022/11/28 08:06:39;;;;;;;37.78;23.27;;;;;;;2.13;94.28;98407.81;10249435;28;20465;-57
2022/11/28 08:11:38;;;;;;;28.63;15.63;;;;;;;2.13;93.96;98398.44;10251999;28;20065;-55
2022/11/28 08:16:40;;;;;;;29.77;19.60;;;;;;;2.15;94.31;98401.94;10257886;28;20461;-56
2022/11/28 08:21:39;;;;;;;36.17;23.42;;;;;;;2.28;94.43;98399.91;10255513;28;20074;-57
2022/11/28 08:26:38;;;;;;;32.65;21.35;;;;;;;2.42;94.43;98390.22;10253796;28;20065;-56
2022/11/28 08:31:38;;;;;;;32.63;22.40;;;;;;;2.56;94.14;98405.38;10255038;28;20070;-56
2022/11/28 08:36:38;;;;;;;33.38;19.60;;;;;;;2.69;93.91;98375.09;10254962;28;20077;-57
2022/11/28 08:41:37;;;;;;;25.92;17.67;;;;;;;2.74;92.76;98383.84;10255206;28;20058;-57
2022/11/28 08:46:36;;;;;;;23.15;15.93;;;;;;;2.66;92.81;98385.25;10255991;28;20066;-56
2022/11/28 08:51:35;;;;;;;21.52;13.75;;;;;;;2.74;92.34;98381.28;10256090;28;20065;-56
2022/11/28 08:56:34;;;;;;;;;;;;;;;2.78;91.53;98378.91;10255658;28;20066;-56
2022/11/28 09:01:33;;;;;;;21.67;13.48;;;;;;;2.80;91.50;98372.16;10254757;28;19940;-56
2022/11/28 09:06:32;;;;;;;20.38;13.15;;;;;;;2.92;91.83;98369.19;10254906;28;20080;-56
2022/11/28 09:11:31;;;;;;;21.60;13.55;;;;;;;3.02;91.23;98366.16;10255009;28;20069;-56
2022/11/28 09:16:30;;;;;;;22.35;16.10;;;;;;;3.10;90.75;98342.53;10254657;28;20567;-56
2022/11/28 09:21:29;;;;;;;25.45;16.65;;;;;;;3.16;90.86;98335.06;10254069;28;20039;-56
2022/11/28 09:26:28;;;;;;;18.50;13.27;;;;;;;3.22;90.81;98337.84;10254914;28;20072;-56
2022/11/28 09:31:27;;;;;;;17.77;12.88;;;;;;;3.23;91.18;98324.19;10255714;28;20065;-57
2022/11/28 09:36:27;;;;;;;21.58;14.13;;;;;;;3.12;90.26;98328.06;10256727;28;20026;-56
2022/11/28 09:41:49;;;;;;;16.45;10.63;;;;;;;3.07;90.71;98317.63;10256334;28;20070;-56
2022/11/28 09:46:56;;;;;;;15.65;10.13;;;;;;;3.00;90.69;98319.09;10256082;28;20081;-56
2022/11/28 09:52:01;;;;;;;18.05;12.77;;;;;;;2.95;90.39;98297.53;10255476;28;20066;-56
2022/11/28 09:57:07;;;;;;;30.35;19.73;;;;;;;2.86;90.22;98294.59;10255415;28;20073;-56
2022/11/28 10:02:06;;;;;;;20.25;13.73;;;;;;;2.96;91.09;98298.41;10255130;28;20101;-56
2022/11/28 10:07:08;;;;;;;19.55;13.13;;;;;;;2.94;90.34;98289.78;10255309;28;20047;-56
2022/11/28 10:12:15;;;;;;;24.08;16.48;;;;;;;2.94;90.75;98284.66;10255066;28;20069;-56
2022/11/28 10:17:41;;;;;;;37.90;25.38;;;;;;;2.87;91.54;98273.31;10254372;28;20065;-56
2022/11/28 10:22:57;;;;;;;36.95;25.30;;;;;;;2.94;91.25;98266.72;10254624;28;20062;-57
2022/11/28 10:27:57;;;;;;;49.47;32.20;;;;;;;3.05;91.48;98269.66;10254527;28;20066;-56
2022/11/28 10:33:13;;;;;;;40.40;26.92;;;;;;;3.12;92.38;98274.19;10253329;28;20077;-56
2022/11/28 10:38:15;;;;;;;42.42;26.67;;;;;;;3.25;92.70;98272.97;10253448;28;20073;-56
2022/11/28 10:43:39;;;;;;;39.78;25.33;;;;;;;3.29;92.12;98277.41;10253446;28;20065;-56
2022/11/28 10:49:06;;;;;;;42.38;28.42;;;;;;;3.33;92.62;98274.09;10213650;28;20078;-57
2022/11/28 10:54:32;;;;;;;45.58;30.23;;;;;;;3.41;92.65;98270.13;10221665;28;20062;-57
2022/11/28 10:59:40;;;;;;;35.75;24.70;;;;;;;3.50;92.63;98264.47;10253146;28;20073;-57
2022/11/28 11:04:40;;;;;;;33.58;23.38;;;;;;;3.57;93.01;98264.72;10252602;28;20086;-57
2022/11/28 11:09:41;;;;;;;25.45;16.92;;;;;;;3.68;93.07;98252.25;10252403;28;20485;-57
2022/11/28 11:14:40;;;;;;;29.95;19.45;;;;;;;3.76;93.02;98250.81;10249164;28;20073;-57
2022/11/28 11:19:39;;;;;;;26.80;18.27;;;;;;;3.82;92.85;98239.88;10244160;28;20101;-57
2022/11/28 11:24:38;;;;;;;16.70;11.65;;;;;;;3.95;92.67;98243.75;10248961;28;20042;-57
2022/11/28 11:29:39;;;;;;;18.60;12.77;;;;;;;4.04;92.39;98236.34;10248627;28;20023;-57
2022/11/28 11:34:44;;;;;;;16.00;10.98;;;;;;;4.04;92.10;98220.94;10249712;28;20076;-57
2022/11/28 11:39:49;;;;;;;18.17;12.95;;;;;;;4.05;91.41;98228.66;10248414;28;20069;-57
2022/11/28 11:44:48;;;;;;;22.60;14.77;;;;;;;4.06;91.49;98219.28;10248894;28;20065;-57
2022/11/28 11:49:49;;;;;;;16.90;11.93;;;;;;;4.01;91.48;98215.69;10247196;28;20074;-57
2022/11/28 11:54:57;;;;;;;16.83;11.80;;;;;;;4.12;91.60;98203.19;10247598;28;20115;-56
2022/11/28 12:00:15;;;;;;;18.77;13.55;;;;;;;4.21;90.74;98204.34;10247036;28;20217;-56
2022/11/28 12:05:22;;;;;;;16.38;11.65;;;;;;;4.00;89.49;98214.81;10248312;28;20488;-57
2022/11/28 12:10:25;;;;;;;17.88;13.43;;;;;;;3.89;89.75;98207.59;10248791;28;20197;-57
2022/11/28 12:15:24;;;;;;;20.88;13.52;;;;;;;3.89;90.09;98198.19;10248067;28;20082;-57
2022/11/28 12:20:50;;;;;;;46.83;26.35;;;;;;;3.87;90.00;98194.72;10245450;28;20509;-57
2022/11/28 12:25:59;;;;;;;52.30;31.70;;;;;;;3.88;90.50;98193.00;10251230;28;20073;-57
2022/11/28 12:31:36;;;;;;;31.88;22.52;;;;;;;3.88;90.46;98185.31;10251194;28;20073;-57
2022/11/28 12:36:53;;;;;;;27.65;20.02;;;;;;;3.83;90.37;98190.28;10250978;28;20093;-57
2022/11/28 12:41:58;;;;;;;23.17;16.67;;;;;;;3.77;90.29;98190.94;10251438;28;20073;-57
2022/11/28 12:46:59;;;;;;;12.20;8.65;;;;;;;3.68;90.02;98190.66;10251018;28;20066;-57
2022/11/28 12:52:19;;;;;;;13.75;9.95;;;;;;;3.70;89.79;98183.88;10246623;28;20086;-57
2022/11/28 12:57:47;;;;;;;16.10;11.40;;;;;;;3.86;90.24;98201.53;10249172;28;20129;-57
2022/11/28 13:03:15;;;;;;;22.75;14.27;;;;;;;3.91;89.91;98201.66;10255937;28;20093;-56
2022/11/28 13:08:39;;;;;;;43.70;29.40;;;;;;;4.03;90.67;98196.06;10256353;28;20146;-57
2022/11/28 13:13:43;;;;;;;22.10;15.88;;;;;;;4.12;91.13;98201.47;10258088;28;20069;-56
2022/11/28 13:19:07;;;;;;;29.48;22.23;;;;;;;4.16;90.85;98200.75;10258277;28;20078;-56
2022/11/28 13:24:32;;;;;;;41.08;29.70;;;;;;;4.14;91.13;98209.25;10257673;28;20140;-56
2022/11/28 13:29:39;;;;;;;37.08;25.50;;;;;;;4.11;91.06;98217.72;10256107;28;20069;-56
2022/11/28 13:34:39;;;;;;;41.83;29.05;;;;;;;4.12;91.21;98209.19;10253163;28;20539;-56
2022/11/28 13:39:46;;;;;;;53.28;36.28;;;;;;;4.02;91.17;98217.44;10252127;28;20062;-56
2022/11/28 13:45:17;;;;;;;53.22;35.55;;;;;;;3.95;91.53;98215.50;10253663;28;20085;-56
2022/11/28 13:50:22;;;;;;;42.55;28.75;;;;;;;3.90;91.44;98209.34;10252773;28;20078;-56
2022/11/28 13:55:40;;;;;;;44.15;30.70;;;;;;;3.76;91.61;98214.03;10253384;28;20084;-56
2022/11/28 14:00:39;;;;;;;37.67;27.85;;;;;;;3.69;92.19;98212.94;10254015;28;20085;-56
2022/11/28 14:05:39;;;;;;;54.20;38.33;;;;;;;3.71;92.15;98219.00;10253552;28;20543;-56
2022/11/28 14:11:03;;;;;;;52.00;37.22;;;;;;;3.70;92.08;98214.66;10252832;28;20065;-56
2022/11/28 14:16:14;;;;;;;43.42;29.38;;;;;;;3.73;92.39;98213.91;10252307;28;20093;-56
2022/11/28 14:21:34;;;;;;;43.15;29.00;;;;;;;3.73;92.60;98222.50;10253005;28;20077;-56
2022/11/28 14:26:35;;;;;;;;;;;;;;;3.70;92.47;98219.81;10254622;28;20066;-56
2022/11/28 14:31:36;;;;;;;68.72;45.58;;;;;;;3.65;92.75;98226.47;10252726;28;19963;-56
2022/11/28 14:36:41;;;;;;;62.85;42.28;;;;;;;3.62;92.71;98221.25;10252840;28;20078;-56
2022/11/28 14:42:05;;;;;;;65.60;42.33;;;;;;;3.56;92.35;98221.91;10252369;28;20100;-57
2022/11/28 14:47:13;;;;;;;75.15;48.42;;;;;;;3.51;92.71;98218.31;10252230;28;20105;-58
2022/11/28 14:52:16;;;;;;;75.80;50.72;;;;;;;3.53;93.06;98231.22;10251680;28;20072;-57
2022/11/28 14:57:22;;;;;;;80.05;53.03;;;;;;;3.46;93.16;98219.84;10251455;28;20532;-58
2022/11/28 15:02:35;;;;;;;71.88;47.17;;;;;;;3.46;93.52;98230.13;10250853;28;20081;-57
2022/11/28 15:07:34;;;;;;;61.03;41.35;;;;;;;3.48;93.82;98232.75;10250945;28;20057;-57
2022/11/28 15:12:55;;;;;;;52.17;38.03;;;;;;;3.51;93.89;98230.28;10250263;28;20034;-57
2022/11/28 15:17:58;;;;;;;112.90;72.43;;;;;;;3.48;93.83;98230.19;10249992;28;20487;-55
2022/11/28 15:22:57;;;;;;;93.75;64.35;;;;;;;3.47;93.68;98225.84;10249118;28;20486;-58
2022/11/28 15:27:56;;;;;;;77.30;48.40;;;;;;;3.45;93.53;98223.25;10248159;28;20488;-55
2022/11/28 15:32:58;;;;;;;68.57;47.50;;;;;;;3.43;93.67;98233.44;10249325;28;20464;-57
2022/11/28 15:37:57;;;;;;;82.18;53.22;;;;;;;3.42;93.72;98234.28;10248155;28;20586;-57
2022/11/28 15:42:58;;;;;;;66.18;43.90;;;;;;;3.31;94.34;98234.69;10249899;28;20073;-57
2022/11/28 15:47:58;;;;;;;75.65;52.17;;;;;;;3.30;95.01;98241.53;10249813;28;20475;-57
2022/11/28 15:53:18;;;;;;;69.93;50.47;;;;;;;3.33;94.80;98239.09;10249482;28;20362;-57
2022/11/28 15:58:29;;;;;;;73.22;51.85;;;;;;;3.31;95.02;98239.81;10209102;28;20077;-57
2022/11/28 16:03:42;;;;;;;88.97;61.20;;;;;;;3.31;95.21;98229.56;10209024;28;20086;-57
2022/11/28 16:09:09;;;;;;;86.63;59.25;;;;;;;3.24;95.32;98228.50;10209140;28;20062;-57
2022/11/28 16:14:10;;;;;;;75.55;50.97;;;;;;;3.16;95.45;98240.16;10211629;28;20085;-57
2022/11/28 16:19:22;;;;;;;64.50;42.97;;;;;;;3.16;95.42;98235.91;10208693;28;20066;-57
2022/11/28 16:24:27;;;;;;;52.42;32.40;;;;;;;3.15;95.16;98236.72;10209350;28;20602;-57
2022/11/28 16:29:29;;;;;;;37.45;25.67;;;;;;;3.12;95.41;98238.31;10208462;28;20512;-57
2022/11/28 16:34:46;;;;;;;36.95;24.25;;;;;;;3.12;95.45;98243.44;10244891;28;20077;-57
2022/11/28 16:39:46;;;;;;;48.85;32.72;;;;;;;3.05;95.48;98228.66;10255672;28;20080;-57
2022/11/28 16:44:45;;;;;;;45.72;29.48;;;;;;;3.02;95.23;98230.28;10270031;28;20577;-57
2022/11/28 16:50:23;;;;;;;43.30;29.30;;;;;;;2.98;95.27;98225.88;10256549;28;20515;-57
2022/11/28 16:55:28;;;;;;;45.80;29.40;;;;;;;2.99;94.86;98225.03;10255028;28;20072;-57
2022/11/28 17:00:27;;;;;;;44.70;30.05;;;;;;;2.99;94.55;98221.63;10253995;28;20121;-57
2022/11/28 17:05:26;;;;;;;41.25;28.48;;;;;;;2.97;94.65;98221.53;10255131;28;20131;-57
2022/11/28 17:10:25;;;;;;;45.70;29.67;;;;;;;2.99;94.63;98219.91;10253422;28;20402;-57
2022/11/28 17:15:23;;;;;;;44.17;30.40;;;;;;;3.00;94.88;98228.47;10252991;28;20070;-57
2022/11/28 17:20:22;;;;;;;62.25;39.33;;;;;;;3.02;95.12;98220.03;10252994;28;20117;-57
2022/11/28 17:25:21;;;;;;;60.45;39.65;;;;;;;3.01;95.18;98220.84;10253129;28;20050;-57
2022/11/28 17:30:20;;;;;;;62.78;42.47;;;;;;;3.01;94.80;98223.41;10252677;28;20109;-57
2022/11/28 17:35:23;;;;;;;59.33;40.33;;;;;;;2.99;94.58;98219.91;10253424;28;20084;-57
2022/11/28 17:40:35;;;;;;;153.57;88.03;;;;;;;2.84;94.88;98215.91;10252853;28;20117;-57
2022/11/28 17:45:34;;;;;;;52.75;38.55;;;;;;;2.70;95.06;98207.72;10250023;28;20456;-57
2022/11/28 17:50:33;;;;;;;41.35;27.70;;;;;;;2.69;95.17;98211.97;10253207;28;20074;-57
2022/11/28 17:55:32;;;;;;;37.00;24.85;;;;;;;2.67;95.35;98208.47;10253164;28;20038;-57
2022/11/28 18:00:32;;;;;;;32.13;22.33;;;;;;;2.68;95.00;98206.81;10252345;28;20113;-57
2022/11/28 18:05:35;;;;;;;25.13;17.48;;;;;;;2.72;95.23;98194.16;10252917;28;20073;-57
2022/11/28 18:10:35;;;;;;;19.35;11.77;;;;;;;2.65;95.26;98188.75;10252228;28;20062;-57
2022/11/28 18:15:38;;;;;;;;;;;;;;;2.42;95.23;98185.31;10252400;28;20069;-56
2022/11/28 18:20:37;;;;;;;24.02;16.38;;;;;;;2.13;95.78;98192.75;10081512;28;20412;-57
2022/11/28 18:25:40;;;;;;;30.50;21.45;;;;;;;2.18;95.96;98201.47;10211275;28;20066;-56
2022/11/28 18:30:44;;;;;;;25.40;18.35;;;;;;;2.32;96.14;98197.75;10251325;28;20061;-56
2022/11/28 18:35:43;;;;;;;27.45;20.20;;;;;;;2.47;96.37;98201.75;10252349;28;20065;-56
2022/11/28 18:40:42;;;;;;;31.95;20.67;;;;;;;2.51;96.13;98196.81;10252165;28;20046;-57
2022/11/28 18:45:41;;;;;;;30.42;20.75;;;;;;;2.56;95.61;98195.28;10250669;28;20073;-57
2022/11/28 18:50:40;;;;;;;36.17;24.23;;;;;;;2.40;96.34;98198.06;10250696;28;20044;-57
2022/11/28 18:55:38;;;;;;;25.50;16.65;;;;;;;2.45;96.14;98201.69;10249987;28;20056;-57
2022/11/28 19:00:38;;;;;;;24.33;16.45;;;;;;;2.50;96.57;98192.47;10249618;28;20323;-56
2022/11/28 19:05:40;;;;;;;25.38;15.95;;;;;;;2.64;96.28;98199.81;10250386;28;20073;-57
2022/11/28 19:10:39;;;;;;;22.90;13.43;;;;;;;2.63;95.87;98190.38;10249863;28;20146;-55
2022/11/28 19:15:39;;;;;;;30.55;17.60;;;;;;;2.41;95.81;98194.69;10250332;28;20070;-55
2022/11/28 19:20:42;;;;;;;39.65;22.98;;;;;;;2.15;96.62;98197.13;10246214;28;20077;-57
2022/11/28 19:25:43;;;;;;;42.22;24.92;;;;;;;2.10;96.57;98202.88;10249662;28;20245;-56
2022/11/28 19:30:42;;;;;;;37.35;23.83;;;;;;;2.05;97.13;98200.13;10250121;28;20479;-57
2022/11/28 19:35:41;;;;;;;36.97;22.30;;;;;;;2.02;97.17;98197.47;10250274;28;20076;-56
2022/11/28 19:40:40;;;;;;;40.53;23.05;;;;;;;2.00;97.08;98196.53;10248578;28;20130;-57
2022/11/28 19:45:39;;;;;;;41.90;28.73;;;;;;;2.02;97.41;98194.00;10248822;28;20037;-57
2022/11/28 19:50:38;;;;;;;35.47;22.63;;;;;;;1.91;97.68;98191.03;10249898;28;20109;-57
2022/11/28 19:55:36;;;;;;;41.80;26.98;;;;;;;1.90;97.88;98199.50;10244786;28;20034;-57
2022/11/28 20:00:36;;;;;;;47.13;27.63;;;;;;;1.75;98.35;98198.09;10248518;28;20046;-57
2022/11/28 20:05:38;;;;;;;42.97;24.77;;;;;;;1.73;98.69;98202.25;10248338;28;20420;-57
2022/11/28 20:10:38;;;;;;;36.80;23.67;;;;;;;1.86;98.51;98205.34;10252992;28;20093;-56
2022/11/28 20:15:36;;;;;;;53.67;32.80;;;;;;;1.85;98.18;98218.94;10256431;28;20515;-57
2022/11/28 20:20:35;;;;;;;45.42;28.15;;;;;;;1.93;98.34;98221.00;10256595;28;20488;-57
2022/11/28 20:25:34;;;;;;;41.38;22.52;;;;;;;1.91;98.42;98214.06;10252459;28;20408;-56
2022/11/28 20:30:35;;;;;;;31.08;19.63;;;;;;;1.86;98.50;98218.13;10256320;28;20038;-57
2022/11/28 20:35:34;;;;;;;62.42;38.75;;;;;;;1.85;98.83;98213.81;10256217;28;20077;-57
2022/11/28 20:40:33;;;;;;;47.53;28.88;;;;;;;1.99;98.79;98209.25;10255998;28;20050;-57
2022/11/28 20:45:32;;;;;;;53.88;32.90;;;;;;;2.09;98.58;98212.25;10255051;28;20097;-57
2022/11/28 20:50:31;;;;;;;59.90;33.88;;;;;;;2.22;98.42;98205.06;10255520;28;20595;-58
2022/11/28 20:55:30;;;;;;;37.03;22.85;;;;;;;2.22;98.27;98210.16;10250796;28;20405;-57
2022/11/28 21:00:29;;;;;;;31.58;17.65;;;;;;;2.21;97.81;98219.53;10255226;28;20120;-57
2022/11/28 21:05:29;;;;;;;34.40;22.20;;;;;;;2.10;97.96;98214.00;10252430;28;20500;-57
2022/11/28 21:10:30;;;;;;;34.63;22.23;;;;;;;2.11;98.26;98195.28;10252567;28;20065;-57
2022/11/28 21:15:29;;;;;;;42.63;26.17;;;;;;;2.19;98.27;98208.38;10251550;28;20066;-57
2022/11/28 21:20:28;;;;;;;33.20;18.20;;;;;;;2.14;98.08;98199.63;10251956;28;20085;-57
2022/11/28 21:25:27;;;;;;;26.73;15.27;;;;;;;2.00;98.46;98201.66;10247325;28;20038;-55
2022/11/28 21:30:26;;;;;;;23.70;14.00;;;;;;;1.87;99.17;98200.28;10252616;28;20070;-56
2022/11/28 21:35:25;;;;;;;26.13;14.63;;;;;;;1.75;99.58;98208.31;10251181;28;20038;-56
2022/11/28 21:40:24;;;;;;;25.65;14.05;;;;;;;1.70;99.31;98212.38;10251423;28;20442;-56
2022/11/28 21:45:23;;;;;;;28.10;16.02;;;;;;;1.73;99.31;98207.38;10251079;28;20042;-56
2022/11/28 21:50:22;;;;;;;71.82;37.85;;;;;;;1.84;99.13;98219.75;10252004;28;20065;-56
2022/11/28 21:55:21;;;;;;;62.30;32.63;;;;;;;1.94;99.18;98206.50;10246941;28;20026;-56
2022/11/28 22:00:20;;;;;;;47.38;25.25;;;;;;;1.87;99.69;98207.94;10211152;28;1133913;-56
2022/11/28 22:05:19;;;;;;;50.20;28.75;;;;;;;1.79;99.78;98200.78;10251043;28;20114;-56
2022/11/28 22:10:18;;;;;;;33.88;19.75;;;;;;;1.92;99.60;98203.00;10251948;28;20030;-55
2022/11/28 22:15:18;;;;;;;30.95;17.60;;;;;;;2.09;99.11;98193.44;10252812;28;20442;-56
2022/11/28 22:20:17;;;;;;;37.80;21.38;;;;;;;2.28;98.79;98198.47;10251873;28;20069;-55
2022/11/28 22:25:16;;;;;;;38.03;23.08;;;;;;;2.41;98.69;98189.56;10251474;28;20053;-56
2022/11/28 22:30:15;;;;;;;36.85;23.30;;;;;;;2.50;98.64;98187.34;10252780;28;20037;-56
2022/11/28 22:35:14;;;;;;;35.35;22.25;;;;;;;2.61;98.56;98177.53;10252126;28;20456;-56
2022/11/28 22:40:14;;;;;;;35.92;22.20;;;;;;;2.68;97.85;98166.69;10252443;28;20488;-56
2022/11/28 22:45:12;;;;;;;40.42;24.90;;;;;;;2.72;97.84;98170.22;10252166;28;20057;-56
2022/11/28 22:50:12;;;;;;;45.72;27.45;;;;;;;2.72;97.96;98167.66;10252176;28;20109;-56
2022/11/28 22:55:11;;;;;;;39.28;23.33;;;;;;;2.69;97.74;98160.72;10251772;28;20467;-56
2022/11/28 23:00:10;;;;;;;;;;;;;;;2.67;97.81;98164.91;10251944;28;20505;-57
2022/11/28 23:05:09;;;;;;;39.45;23.23;;;;;;;2.70;97.10;98162.50;10251133;28;19944;-56
2022/11/28 23:10:08;;;;;;;31.33;19.23;;;;;;;2.70;97.44;98146.22;10248452;28;20027;-56
2022/11/28 23:15:08;;;;;;;34.40;20.67;;;;;;;2.76;97.33;98143.88;10248357;28;20538;-55
2022/11/28 23:20:08;;;;;;;32.00;19.38;;;;;;;2.76;96.89;98152.44;10248045;28;20066;-56
2022/11/28 23:25:07;;;;;;;35.15;20.20;;;;;;;2.77;96.91;98153.34;10250590;28;20080;-56